sensor_id;sensor_type;location;lat;lon;timestamp;pressure;altitude;pressure_sealevel;temperature;humidity
57656;BME280;43482;53.334;6.744;2022-08-21T00:02:23;101616.88;;;16.07;98.10
57656;BME280;43482;53.334;6.744;2022-08-21T00:04:49;101623.53;;;16.11;97.93
57656;BME280;43482;53.334;6.744;2022-08-21T00:07:16;101631.88;;;16.08;98.09
57656;BME280;43482;53.334;6.744;2022-08-21T00:09:42;101626.84;;;16.04;97.63
57656;BME280;43482;53.334;6.744;2022-08-21T00:12:07;101623.53;;;16.02;96.82
57656;BME280;43482;53.334;6.744;2022-08-21T00:14:34;101626.03;;;16.04;95.81
57656;BME280;43482;53.334;6.744;2022-08-21T00:17:00;101620.53;;;16.06;95.65
57656;BME280;43482;53.334;6.744;2022-08-21T00:19:25;101624.53;;;16.01;96.35
57656;BME280;43482;53.334;6.744;2022-08-21T00:21:52;101620.69;;;15.96;97.68
57656;BME280;43482;53.334;6.744;2022-08-21T00:24:19;101614.91;;;15.92;96.30
57656;BME280;43482;53.334;6.744;2022-08-21T00:26:44;101613.41;;;15.90;95.45
57656;BME280;43482;53.334;6.744;2022-08-21T00:29:10;101619.22;;;15.93;94.60
57656;BME280;43482;53.334;6.744;2022-08-21T00:31:36;101608.25;;;15.88;93.67
57656;BME280;43482;53.334;6.744;2022-08-21T00:34:01;101610.56;;;15.91;94.58
57656;BME280;43482;53.334;6.744;2022-08-21T00:36:27;101623.88;;;15.91;93.55
57656;BME280;43482;53.334;6.744;2022-08-21T00:38:52;101612.56;;;15.89;94.13
57656;BME280;43482;53.334;6.744;2022-08-21T00:41:18;101614.88;;;15.84;93.93
57656;BME280;43482;53.334;6.744;2022-08-21T00:43:43;101600.91;;;15.74;93.34
57656;BME280;43482;53.334;6.744;2022-08-21T00:46:09;101620.88;;;15.86;94.10
57656;BME280;43482;53.334;6.744;2022-08-21T00:48:35;101613.25;;;15.83;93.11
57656;BME280;43482;53.334;6.744;2022-08-21T00:51:10;101615.91;;;15.83;92.53
57656;BME280;43482;53.334;6.744;2022-08-21T00:53:43;101616.22;;;15.80;91.92
57656;BME280;43482;53.334;6.744;2022-08-21T00:56:10;101613.72;;;15.78;92.82
57656;BME280;43482;53.334;6.744;2022-08-21T00:58:39;101611.53;;;15.74;94.91
57656;BME280;43482;53.334;6.744;2022-08-21T01:01:07;101617.50;;;15.68;95.88
57656;BME280;43482;53.334;6.744;2022-08-21T01:03:33;101617.00;;;15.64;96.02
57656;BME280;43482;53.334;6.744;2022-08-21T01:05:59;101621.50;;;15.63;96.10
57656;BME280;43482;53.334;6.744;2022-08-21T01:08:25;101618.47;;;15.58;96.50
57656;BME280;43482;53.334;6.744;2022-08-21T01:10:54;101619.47;;;15.49;98.01
57656;BME280;43482;53.334;6.744;2022-08-21T01:13:21;101603.81;;;15.30;98.98
57656;BME280;43482;53.334;6.744;2022-08-21T01:15:50;101623.06;;;15.23;99.78
57656;BME280;43482;53.334;6.744;2022-08-21T01:18:18;101612.53;;;15.06;100.00
57656;BME280;43482;53.334;6.744;2022-08-21T01:23:30;101609.94;;;14.79;100.00
57656;BME280;43482;53.334;6.744;2022-08-21T01:25:55;101615.59;;;14.76;100.00
57656;BME280;43482;53.334;6.744;2022-08-21T01:28:21;101605.88;;;14.67;100.00
57656;BME280;43482;53.334;6.744;2022-08-21T01:30:49;101613.75;;;14.77;100.00
57656;BME280;43482;53.334;6.744;2022-08-21T01:33:20;101605.94;;;14.75;100.00
57656;BME280;43482;53.334;6.744;2022-08-21T01:35:47;101593.06;;;14.63;100.00
57656;BME280;43482;53.334;6.744;2022-08-21T01:38:12;101606.22;;;14.64;100.00
57656;BME280;43482;53.334;6.744;2022-08-21T01:40:38;101606.84;;;14.58;100.00
57656;BME280;43482;53.334;6.744;2022-08-21T01:43:03;101555.16;;;14.26;100.00
57656;BME280;43482;53.334;6.744;2022-08-21T01:45:29;101610.09;;;14.52;100.00
57656;BME280;43482;53.334;6.744;2022-08-21T01:47:54;101603.81;;;14.53;100.00
57656;BME280;43482;53.334;6.744;2022-08-21T01:50:20;101604.31;;;14.56;100.00
57656;BME280;43482;53.334;6.744;2022-08-21T01:52:46;101593.88;;;14.55;100.00
57656;BME280;43482;53.334;6.744;2022-08-21T01:55:13;101598.19;;;14.56;100.00
57656;BME280;43482;53.334;6.744;2022-08-21T01:57:39;101583.53;;;14.52;100.00
57656;BME280;43482;53.334;6.744;2022-08-21T02:00:08;101583.53;;;14.52;100.00
57656;BME280;43482;53.334;6.744;2022-08-21T02:02:34;101592.72;;;14.57;100.00
57656;BME280;43482;53.334;6.744;2022-08-21T02:05:00;101590.53;;;14.53;100.00
57656;BME280;43482;53.334;6.744;2022-08-21T02:07:25;101582.16;;;14.48;100.00
57656;BME280;43482;53.334;6.744;2022-08-21T02:09:51;101577.81;;;14.38;100.00
57656;BME280;43482;53.334;6.744;2022-08-21T02:12:16;101571.13;;;14.34;100.00
57656;BME280;43482;53.334;6.744;2022-08-21T02:14:42;101577.75;;;14.30;100.00
57656;BME280;43482;53.334;6.744;2022-08-21T02:17:07;101569.44;;;14.25;100.00
57656;BME280;43482;53.334;6.744;2022-08-21T02:19:32;101577.25;;;14.27;100.00
57656;BME280;43482;53.334;6.744;2022-08-21T02:21:58;101569.91;;;14.20;100.00
57656;BME280;43482;53.334;6.744;2022-08-21T02:24:23;101572.03;;;14.17;100.00
57656;BME280;43482;53.334;6.744;2022-08-21T02:26:48;101575.97;;;14.13;100.00
57656;BME280;43482;53.334;6.744;2022-08-21T02:29:14;101571.97;;;14.09;100.00
57656;BME280;43482;53.334;6.744;2022-08-21T02:31:39;101569.50;;;14.07;100.00
57656;BME280;43482;53.334;6.744;2022-08-21T02:34:05;101565.00;;;14.08;100.00
57656;BME280;43482;53.334;6.744;2022-08-21T02:36:30;101573.28;;;14.05;100.00
57656;BME280;43482;53.334;6.744;2022-08-21T02:38:55;101562.50;;;14.06;100.00
57656;BME280;43482;53.334;6.744;2022-08-21T02:41:23;101570.09;;;14.01;100.00
57656;BME280;43482;53.334;6.744;2022-08-21T02:43:49;101569.56;;;13.97;100.00
57656;BME280;43482;53.334;6.744;2022-08-21T02:46:17;101557.78;;;13.92;100.00
57656;BME280;43482;53.334;6.744;2022-08-21T02:48:43;101557.59;;;13.93;100.00
57656;BME280;43482;53.334;6.744;2022-08-21T02:51:13;101565.13;;;13.98;100.00
57656;BME280;43482;53.334;6.744;2022-08-21T02:53:40;101558.44;;;13.94;100.00
57656;BME280;43482;53.334;6.744;2022-08-21T02:56:08;101560.56;;;13.90;100.00
57656;BME280;43482;53.334;6.744;2022-08-21T02:58:38;101556.56;;;13.86;100.00
57656;BME280;43482;53.334;6.744;2022-08-21T03:01:05;101553.53;;;13.81;100.00
57656;BME280;43482;53.334;6.744;2022-08-21T03:03:34;101544.06;;;13.78;100.00
57656;BME280;43482;53.334;6.744;2022-08-21T03:06:00;101544.50;;;13.74;100.00
57656;BME280;43482;53.334;6.744;2022-08-21T03:08:25;101551.13;;;13.70;100.00
57656;BME280;43482;53.334;6.744;2022-08-21T03:10:52;101537.13;;;13.60;100.00
57656;BME280;43482;53.334;6.744;2022-08-21T03:13:19;101546.25;;;13.65;100.00
57656;BME280;43482;53.334;6.744;2022-08-21T03:15:45;101537.47;;;13.65;100.00
57656;BME280;43482;53.334;6.744;2022-08-21T03:18:11;101540.59;;;13.60;100.00
57656;BME280;43482;53.334;6.744;2022-08-21T03:20:38;101540.59;;;13.60;100.00
57656;BME280;43482;53.334;6.744;2022-08-21T03:23:05;101540.75;;;13.58;100.00
57656;BME280;43482;53.334;6.744;2022-08-21T03:25:31;101535.75;;;13.55;100.00
57656;BME280;43482;53.334;6.744;2022-08-21T03:27:58;101538.53;;;13.54;100.00
57656;BME280;43482;53.334;6.744;2022-08-21T03:30:24;101535.06;;;13.53;100.00
57656;BME280;43482;53.334;6.744;2022-08-21T03:32:50;101515.06;;;13.41;100.00
57656;BME280;43482;53.334;6.744;2022-08-21T03:35:17;101533.19;;;13.46;100.00
57656;BME280;43482;53.334;6.744;2022-08-21T03:37:42;101529.47;;;13.38;100.00
57656;BME280;43482;53.334;6.744;2022-08-21T03:40:08;101524.47;;;13.35;100.00
57656;BME280;43482;53.334;6.744;2022-08-21T03:42:34;101512.94;;;13.27;100.00
57656;BME280;43482;53.334;6.744;2022-08-21T03:45:00;101535.69;;;13.29;100.00
57656;BME280;43482;53.334;6.744;2022-08-21T03:47:25;101534.84;;;13.29;100.00
57656;BME280;43482;53.334;6.744;2022-08-21T03:49:51;101511.00;;;13.19;100.00
57656;BME280;43482;53.334;6.744;2022-08-21T03:52:17;101514.91;;;13.25;100.00
57656;BME280;43482;53.334;6.744;2022-08-21T03:54:43;101526.47;;;13.24;100.00
57656;BME280;43482;53.334;6.744;2022-08-21T03:57:09;101516.72;;;13.24;100.00
57656;BME280;43482;53.334;6.744;2022-08-21T03:59:36;101522.16;;;13.23;100.00
57656;BME280;43482;53.334;6.744;2022-08-21T04:02:04;101515.50;;;13.18;100.00
57656;BME280;43482;53.334;6.744;2022-08-21T04:04:31;101515.50;;;13.18;100.00
57656;BME280;43482;53.334;6.744;2022-08-21T04:06:57;101517.59;;;13.15;100.00
57656;BME280;43482;53.334;6.744;2022-08-21T04:09:23;101519.75;;;13.11;100.00
57656;BME280;43482;53.334;6.744;2022-08-21T04:11:48;101505.34;;;12.96;100.00
57656;BME280;43482;53.334;6.744;2022-08-21T04:14:15;101517.44;;;12.99;100.00
57656;BME280;43482;53.334;6.744;2022-08-21T04:16:41;101518.00;;;13.02;100.00
57656;BME280;43482;53.334;6.744;2022-08-21T04:19:08;101519.50;;;13.05;100.00
57656;BME280;43482;53.334;6.744;2022-08-21T04:21:33;101521.00;;;13.07;100.00
57656;BME280;43482;53.334;6.744;2022-08-21T04:23:59;101521.97;;;13.06;100.00
57656;BME280;43482;53.334;6.744;2022-08-21T04:26:24;101520.19;;;13.07;100.00
57656;BME280;43482;53.334;6.744;2022-08-21T04:28:51;101511.38;;;13.06;100.00
57656;BME280;43482;53.334;6.744;2022-08-21T04:31:17;101521.84;;;13.08;100.00
57656;BME280;43482;53.334;6.744;2022-08-21T04:33:43;101525.88;;;13.12;100.00
57656;BME280;43482;53.334;6.744;2022-08-21T04:36:10;101532.81;;;13.13;100.00
57656;BME280;43482;53.334;6.744;2022-08-21T04:38:36;101522.16;;;13.05;100.00
57656;BME280;43482;53.334;6.744;2022-08-21T04:41:01;101525.63;;;13.05;100.00
57656;BME280;43482;53.334;6.744;2022-08-21T04:43:27;101525.63;;;13.05;100.00
57656;BME280;43482;53.334;6.744;2022-08-21T04:45:53;101520.19;;;13.07;100.00
57656;BME280;43482;53.334;6.744;2022-08-21T04:48:21;101528.97;;;13.07;100.00
57656;BME280;43482;53.334;6.744;2022-08-21T04:50:59;101532.31;;;13.09;100.00
57656;BME280;43482;53.334;6.744;2022-08-21T04:53:37;101529.66;;;13.09;100.00
57656;BME280;43482;53.334;6.744;2022-08-21T04:56:08;101531.47;;;13.09;100.00
57656;BME280;43482;53.334;6.744;2022-08-21T04:58:36;101527.44;;;13.05;100.00
57656;BME280;43482;53.334;6.744;2022-08-21T05:01:05;101525.63;;;13.05;100.00
57656;BME280;43482;53.334;6.744;2022-08-21T05:03:33;101531.75;;;13.06;100.00
57656;BME280;43482;53.334;6.744;2022-08-21T05:06:00;101507.00;;;12.97;100.00
57656;BME280;43482;53.334;6.744;2022-08-21T05:08:26;101525.41;;;13.16;100.00
57656;BME280;43482;53.334;6.744;2022-08-21T05:10:53;101526.09;;;13.18;100.00
57656;BME280;43482;53.334;6.744;2022-08-21T05:13:19;101523.13;;;13.22;100.00
57656;BME280;43482;53.334;6.744;2022-08-21T05:15:45;101523.53;;;13.27;100.00
57656;BME280;43482;53.334;6.744;2022-08-21T05:18:11;101524.06;;;13.30;100.00
57656;BME280;43482;53.334;6.744;2022-08-21T05:20:36;101517.94;;;13.30;100.00
57656;BME280;43482;53.334;6.744;2022-08-21T05:23:10;101525.16;;;13.37;100.00
57656;BME280;43482;53.334;6.744;2022-08-21T05:25:37;101516.75;;;13.42;100.00
57656;BME280;43482;53.334;6.744;2022-08-21T05:28:03;101524.00;;;13.40;100.00
57656;BME280;43482;53.334;6.744;2022-08-21T05:30:29;101522.72;;;13.44;100.00
57656;BME280;43482;53.334;6.744;2022-08-21T05:32:59;101534.25;;;13.53;100.00
57656;BME280;43482;53.334;6.744;2022-08-21T05:35:26;101533.78;;;13.57;100.00
57656;BME280;43482;53.334;6.744;2022-08-21T05:37:52;101536.34;;;13.67;100.00
57656;BME280;43482;53.334;6.744;2022-08-21T05:40:17;101541.84;;;13.74;100.00
57656;BME280;43482;53.334;6.744;2022-08-21T05:42:43;101542.59;;;13.84;100.00
57656;BME280;43482;53.334;6.744;2022-08-21T05:45:09;101537.22;;;13.94;100.00
57656;BME280;43482;53.334;6.744;2022-08-21T05:47:34;101536.44;;;14.02;100.00
57656;BME280;43482;53.334;6.744;2022-08-21T05:50:00;101532.53;;;14.14;100.00
57656;BME280;43482;53.334;6.744;2022-08-21T05:52:25;101532.41;;;14.24;100.00
57656;BME280;43482;53.334;6.744;2022-08-21T05:54:51;101530.34;;;14.35;100.00
57656;BME280;43482;53.334;6.744;2022-08-21T05:57:18;101533.53;;;14.47;100.00
57656;BME280;43482;53.334;6.744;2022-08-21T05:59:44;101529.06;;;14.48;100.00
57656;BME280;43482;53.334;6.744;2022-08-21T06:02:10;101536.81;;;14.67;100.00
57656;BME280;43482;53.334;6.744;2022-08-21T06:04:37;101533.84;;;14.70;100.00
57656;BME280;43482;53.334;6.744;2022-08-21T06:07:03;101532.69;;;14.73;100.00
57656;BME280;43482;53.334;6.744;2022-08-21T06:09:29;101530.41;;;14.86;100.00
57656;BME280;43482;53.334;6.744;2022-08-21T06:11:54;101534.44;;;14.98;100.00
57656;BME280;43482;53.334;6.744;2022-08-21T06:14:19;101537.28;;;15.05;100.00
57656;BME280;43482;53.334;6.744;2022-08-21T06:16:45;101526.81;;;15.04;100.00
57656;BME280;43482;53.334;6.744;2022-08-21T06:19:10;101537.63;;;15.18;100.00
57656;BME280;43482;53.334;6.744;2022-08-21T06:21:36;101531.66;;;15.25;100.00
57656;BME280;43482;53.334;6.744;2022-08-21T06:24:01;101528.00;;;15.34;100.00
57656;BME280;43482;53.334;6.744;2022-08-21T06:26:26;101535.00;;;15.43;100.00
57656;BME280;43482;53.334;6.744;2022-08-21T06:28:53;101531.00;;;15.47;100.00
57656;BME280;43482;53.334;6.744;2022-08-21T06:31:24;101539.34;;;15.69;100.00
57656;BME280;43482;53.334;6.744;2022-08-21T06:33:50;101536.22;;;15.81;100.00
57656;BME280;43482;53.334;6.744;2022-08-21T06:36:16;101527.22;;;15.91;100.00
57656;BME280;43482;53.334;6.744;2022-08-21T06:38:41;101533.00;;;16.11;100.00
57656;BME280;43482;53.334;6.744;2022-08-21T06:41:08;101537.13;;;16.30;100.00
57656;BME280;43482;53.334;6.744;2022-08-21T06:43:33;101533.56;;;16.45;100.00
57656;BME280;43482;53.334;6.744;2022-08-21T06:45:59;101535.16;;;16.63;100.00
57656;BME280;43482;53.334;6.744;2022-08-21T06:48:24;101537.78;;;16.79;100.00
57656;BME280;43482;53.334;6.744;2022-08-21T06:50:50;101538.03;;;17.01;100.00
57656;BME280;43482;53.334;6.744;2022-08-21T06:53:19;101535.72;;;17.21;100.00
57656;BME280;43482;53.334;6.744;2022-08-21T06:55:46;101535.97;;;17.34;100.00
57656;BME280;43482;53.334;6.744;2022-08-21T06:58:12;101537.03;;;17.48;100.00
57656;BME280;43482;53.334;6.744;2022-08-21T07:00:44;101534.88;;;18.04;100.00
57656;BME280;43482;53.334;6.744;2022-08-21T07:03:23;101539.78;;;18.75;97.93
57656;BME280;43482;53.334;6.744;2022-08-21T07:05:49;101546.25;;;19.39;93.98
57656;BME280;43482;53.334;6.744;2022-08-21T07:08:14;101550.94;;;20.01;90.89
57656;BME280;43482;53.334;6.744;2022-08-21T07:10:40;101545.25;;;20.18;88.60
57656;BME280;43482;53.334;6.744;2022-08-21T07:13:05;101533.78;;;20.30;87.28
57656;BME280;43482;53.334;6.744;2022-08-21T07:15:30;101540.56;;;20.61;87.19
57656;BME280;43482;53.334;6.744;2022-08-21T07:17:57;101546.66;;;20.83;86.12
57656;BME280;43482;53.334;6.744;2022-08-21T07:20:23;101535.06;;;20.76;85.09
57656;BME280;43482;53.334;6.744;2022-08-21T07:22:48;101541.59;;;21.28;83.73
57656;BME280;43482;53.334;6.744;2022-08-21T07:25:13;101538.97;;;21.55;80.11
57656;BME280;43482;53.334;6.744;2022-08-21T07:27:39;101538.75;;;22.03;78.92
57656;BME280;43482;53.334;6.744;2022-08-21T07:30:05;101538.72;;;22.16;75.00
57656;BME280;43482;53.334;6.744;2022-08-21T07:32:31;101538.69;;;22.43;74.24
57656;BME280;43482;53.334;6.744;2022-08-21T07:34:56;101546.00;;;22.74;73.23
57656;BME280;43482;53.334;6.744;2022-08-21T07:37:21;101526.84;;;22.57;71.39
57656;BME280;43482;53.334;6.744;2022-08-21T07:39:48;101533.72;;;23.30;70.12
57656;BME280;43482;53.334;6.744;2022-08-21T07:42:14;101540.53;;;23.90;68.92
57656;BME280;43482;53.334;6.744;2022-08-21T07:44:40;101535.13;;;23.90;67.88
57656;BME280;43482;53.334;6.744;2022-08-21T07:47:05;101540.81;;;23.75;66.18
57656;BME280;43482;53.334;6.744;2022-08-21T07:49:31;101524.38;;;23.01;68.29
57656;BME280;43482;53.334;6.744;2022-08-21T07:51:56;101533.50;;;23.00;69.85
57656;BME280;43482;53.334;6.744;2022-08-21T07:54:22;101512.91;;;22.74;68.63
57656;BME280;43482;53.334;6.744;2022-08-21T07:56:47;101510.34;;;22.86;68.07
57656;BME280;43482;53.334;6.744;2022-08-21T07:59:12;101522.50;;;23.02;67.84
57656;BME280;43482;53.334;6.744;2022-08-21T08:01:38;101518.59;;;22.97;67.82
57656;BME280;43482;53.334;6.744;2022-08-21T08:04:03;101512.78;;;23.00;67.81
57656;BME280;43482;53.334;6.744;2022-08-21T08:06:29;101513.13;;;23.68;66.95
57656;BME280;43482;53.334;6.744;2022-08-21T08:08:55;101521.69;;;23.58;65.40
57656;BME280;43482;53.334;6.744;2022-08-21T08:11:21;101524.56;;;23.63;65.44
57656;BME280;43482;53.334;6.744;2022-08-21T08:13:50;101523.03;;;23.74;65.08
57656;BME280;43482;53.334;6.744;2022-08-21T08:16:16;101519.91;;;24.39;64.05
57656;BME280;43482;53.334;6.744;2022-08-21T08:18:42;101527.78;;;23.97;63.55
57656;BME280;43482;53.334;6.744;2022-08-21T08:21:10;101513.50;;;24.52;63.64
57656;BME280;43482;53.334;6.744;2022-08-21T08:23:36;101526.16;;;24.14;63.47
57656;BME280;43482;53.334;6.744;2022-08-21T08:26:02;101532.69;;;24.80;62.55
57656;BME280;43482;53.334;6.744;2022-08-21T08:28:29;101526.19;;;24.70;62.42
57656;BME280;43482;53.334;6.744;2022-08-21T08:30:55;101524.91;;;24.35;64.17
57656;BME280;43482;53.334;6.744;2022-08-21T08:33:20;101511.63;;;24.34;64.36
57656;BME280;43482;53.334;6.744;2022-08-21T08:35:48;101526.81;;;23.66;66.87
57656;BME280;43482;53.334;6.744;2022-08-21T08:38:16;101519.13;;;25.41;63.88
57656;BME280;43482;53.334;6.744;2022-08-21T08:43:18;101526.72;;;25.74;61.42
57656;BME280;43482;53.334;6.744;2022-08-21T08:45:48;101521.91;;;26.52;60.38
57656;BME280;43482;53.334;6.744;2022-08-21T08:48:30;101524.25;;;26.60;59.20
57656;BME280;43482;53.334;6.744;2022-08-21T08:50:59;101510.22;;;25.40;61.77
57656;BME280;43482;53.334;6.744;2022-08-21T08:53:31;101528.63;;;24.34;65.49
57656;BME280;43482;53.334;6.744;2022-08-21T08:55:57;101520.19;;;24.31;65.00
57656;BME280;43482;53.334;6.744;2022-08-21T08:58:31;101517.94;;;25.37;63.62
57656;BME280;43482;53.334;6.744;2022-08-21T09:00:57;101519.72;;;26.37;61.80
57656;BME280;43482;53.334;6.744;2022-08-21T09:03:24;101512.63;;;26.48;61.64
57656;BME280;43482;53.334;6.744;2022-08-21T09:12:06;101513.88;;;27.15;57.86
57656;BME280;43482;53.334;6.744;2022-08-21T09:14:42;101520.69;;;27.29;60.11
57656;BME280;43482;53.334;6.744;2022-08-21T09:20:03;101526.19;;;26.48;61.71
57656;BME280;43482;53.334;6.744;2022-08-21T09:25:18;101522.75;;;27.10;61.41
57656;BME280;43482;53.334;6.744;2022-08-21T09:27:46;101528.09;;;28.28;57.46
57656;BME280;43482;53.334;6.744;2022-08-21T09:30:17;101514.75;;;27.66;58.48
57656;BME280;43482;53.334;6.744;2022-08-21T09:32:43;101510.13;;;27.83;58.83
57656;BME280;43482;53.334;6.744;2022-08-21T09:35:10;101518.38;;;28.10;58.13
57656;BME280;43482;53.334;6.744;2022-08-21T09:38:06;101511.44;;;30.41;52.99
57656;BME280;43482;53.334;6.744;2022-08-21T09:43:18;101519.50;;;30.88;50.80
57656;BME280;43482;53.334;6.744;2022-08-21T09:45:47;101520.34;;;29.73;54.64
57656;BME280;43482;53.334;6.744;2022-08-21T09:48:23;101527.97;;;31.28;52.61
57656;BME280;43482;53.334;6.744;2022-08-21T09:50:50;101534.00;;;31.55;50.20
57656;BME280;43482;53.334;6.744;2022-08-21T09:53:22;101526.59;;;30.26;51.50
57656;BME280;43482;53.334;6.744;2022-08-21T09:55:55;101523.41;;;30.29;52.74
57656;BME280;43482;53.334;6.744;2022-08-21T09:58:43;101516.44;;;28.99;54.67
57656;BME280;43482;53.334;6.744;2022-08-21T10:01:15;101514.59;;;28.78;55.15
57656;BME280;43482;53.334;6.744;2022-08-21T10:03:41;101509.72;;;31.49;50.24
57656;BME280;43482;53.334;6.744;2022-08-21T10:06:08;101510.34;;;30.37;51.15
57656;BME280;43482;53.334;6.744;2022-08-21T10:08:38;101501.72;;;29.60;52.18
57656;BME280;43482;53.334;6.744;2022-08-21T10:11:10;101500.44;;;31.34;50.34
57656;BME280;43482;53.334;6.744;2022-08-21T10:27:14;101491.81;;;29.43;52.39
57656;BME280;43482;53.334;6.744;2022-08-21T10:29:51;101507.03;;;28.36;55.64
57656;BME280;43482;53.334;6.744;2022-08-21T10:40:26;101490.53;;;28.91;52.50
57656;BME280;43482;53.334;6.744;2022-08-21T10:43:07;101484.69;;;29.37;51.43
57656;BME280;43482;53.334;6.744;2022-08-21T10:53:41;101489.19;;;31.72;48.79
57656;BME280;43482;53.334;6.744;2022-08-21T10:56:20;101480.53;;;30.98;51.58
57656;BME280;43482;53.334;6.744;2022-08-21T10:59:01;101482.97;;;32.36;48.91
57656;BME280;43482;53.334;6.744;2022-08-21T11:01:37;101484.75;;;32.07;49.61
57656;BME280;43482;53.334;6.744;2022-08-21T11:04:20;101485.09;;;31.80;47.89
57656;BME280;43482;53.334;6.744;2022-08-21T11:06:51;101478.25;;;30.54;48.44
57656;BME280;43482;53.334;6.744;2022-08-21T11:09:20;101483.16;;;30.57;49.11
57656;BME280;43482;53.334;6.744;2022-08-21T11:17:07;101488.31;;;27.22;57.86
57656;BME280;43482;53.334;6.744;2022-08-21T11:19:41;101504.50;;;27.34;56.95
57656;BME280;43482;53.334;6.744;2022-08-21T11:25:19;101501.16;;;30.63;50.76
57656;BME280;43482;53.334;6.744;2022-08-21T11:27:50;101502.88;;;31.10;49.11
57656;BME280;43482;53.334;6.744;2022-08-21T11:30:17;101497.97;;;31.12;48.21
57656;BME280;43482;53.334;6.744;2022-08-21T11:38:03;101496.75;;;28.38;52.43
57656;BME280;43482;53.334;6.744;2022-08-21T11:43:31;101507.47;;;28.05;56.59
57656;BME280;43482;53.334;6.744;2022-08-21T11:51:46;101497.34;;;27.45;57.49
57656;BME280;43482;53.334;6.744;2022-08-21T11:57:08;101496.19;;;28.36;54.25
57656;BME280;43482;53.334;6.744;2022-08-21T12:00:03;101497.72;;;28.48;54.67
57656;BME280;43482;53.334;6.744;2022-08-21T12:02:35;101487.16;;;28.52;55.42
57656;BME280;43482;53.334;6.744;2022-08-21T12:05:08;101489.94;;;28.57;54.47
57656;BME280;43482;53.334;6.744;2022-08-21T12:07:42;101503.63;;;28.45;54.50
57656;BME280;43482;53.334;6.744;2022-08-21T12:10:15;101507.53;;;28.33;56.15
57656;BME280;43482;53.334;6.744;2022-08-21T12:12:43;101514.47;;;28.23;56.39
57656;BME280;43482;53.334;6.744;2022-08-21T12:15:14;101508.28;;;28.06;56.06
57656;BME280;43482;53.334;6.744;2022-08-21T12:18:36;101504.03;;;27.76;56.74
57656;BME280;43482;53.334;6.744;2022-08-21T12:20:43;101498.78;;;27.69;56.81
57656;BME280;43482;53.334;6.744;2022-08-21T12:25:41;101504.31;;;27.41;57.70
57656;BME280;43482;53.334;6.744;2022-08-21T12:28:09;101503.88;;;27.15;57.40
57656;BME280;43482;53.334;6.744;2022-08-21T12:30:38;101495.81;;;27.03;58.22
57656;BME280;43482;53.334;6.744;2022-08-21T12:33:30;101506.72;;;27.08;58.43
57656;BME280;43482;53.334;6.744;2022-08-21T12:36:09;101509.09;;;27.34;58.40
57656;BME280;43482;53.334;6.744;2022-08-21T12:38:52;101505.94;;;27.59;56.92
57656;BME280;43482;53.334;6.744;2022-08-21T12:41:22;101509.28;;;28.00;57.08
57656;BME280;43482;53.334;6.744;2022-08-21T12:43:59;101511.19;;;29.89;52.71
57656;BME280;43482;53.334;6.744;2022-08-21T12:46:42;101505.56;;;31.77;48.63
57656;BME280;43482;53.334;6.744;2022-08-21T12:49:15;101512.38;;;31.74;46.73
57656;BME280;43482;53.334;6.744;2022-08-21T12:51:54;101509.97;;;32.53;46.06
57656;BME280;43482;53.334;6.744;2022-08-21T12:54:36;101520.81;;;31.98;46.97
57656;BME280;43482;53.334;6.744;2022-08-21T12:57:05;101513.78;;;31.15;47.44
57656;BME280;43482;53.334;6.744;2022-08-21T12:59:31;101517.97;;;30.40;49.59
57656;BME280;43482;53.334;6.744;2022-08-21T13:02:00;101523.66;;;29.80;51.18
57656;BME280;43482;53.334;6.744;2022-08-21T13:04:37;101516.78;;;29.08;53.13
57656;BME280;43482;53.334;6.744;2022-08-21T13:07:11;101524.34;;;28.29;52.72
57656;BME280;43482;53.334;6.744;2022-08-21T13:12:40;101508.34;;;27.72;53.37
57656;BME280;43482;53.334;6.744;2022-08-21T13:15:07;101521.50;;;27.63;53.59
57656;BME280;43482;53.334;6.744;2022-08-21T13:17:36;101523.94;;;27.48;53.40
57656;BME280;43482;53.334;6.744;2022-08-21T13:20:18;101522.81;;;27.27;54.67
57656;BME280;43482;53.334;6.744;2022-08-21T13:22:44;101518.66;;;27.07;54.55
57656;BME280;43482;53.334;6.744;2022-08-21T13:25:12;101528.09;;;27.05;54.65
57656;BME280;43482;53.334;6.744;2022-08-21T13:27:38;101525.94;;;27.53;53.67
57656;BME280;43482;53.334;6.744;2022-08-21T13:30:13;101522.78;;;28.56;52.76
57656;BME280;43482;53.334;6.744;2022-08-21T13:32:45;101531.28;;;28.64;52.05
57656;BME280;43482;53.334;6.744;2022-08-21T13:35:22;101524.56;;;28.94;51.61
57656;BME280;43482;53.334;6.744;2022-08-21T13:37:49;101532.66;;;28.67;52.33
57656;BME280;43482;53.334;6.744;2022-08-21T13:40:28;101529.09;;;28.00;53.20
57656;BME280;43482;53.334;6.744;2022-08-21T13:42:55;101513.50;;;27.90;52.09
57656;BME280;43482;53.334;6.744;2022-08-21T13:45:27;101527.00;;;27.85;53.45
57656;BME280;43482;53.334;6.744;2022-08-21T13:47:56;101532.75;;;27.72;52.75
57656;BME280;43482;53.334;6.744;2022-08-21T13:50:23;101529.47;;;27.36;54.04
57656;BME280;43482;53.334;6.744;2022-08-21T13:53:02;101540.63;;;26.94;56.03
57656;BME280;43482;53.334;6.744;2022-08-21T13:55:38;101528.50;;;26.56;57.88
57656;BME280;43482;53.334;6.744;2022-08-21T13:58:04;101528.81;;;26.31;59.52
57656;BME280;43482;53.334;6.744;2022-08-21T14:00:32;101539.03;;;26.29;59.42
57656;BME280;43482;53.334;6.744;2022-08-21T14:03:06;101536.56;;;26.27;60.17
57656;BME280;43482;53.334;6.744;2022-08-21T14:05:36;101543.63;;;26.29;60.14
57656;BME280;43482;53.334;6.744;2022-08-21T14:08:13;101538.44;;;26.15;59.95
57656;BME280;43482;53.334;6.744;2022-08-21T14:10:49;101532.13;;;26.10;60.48
57656;BME280;43482;53.334;6.744;2022-08-21T14:13:33;101530.38;;;25.92;61.12